sensor_id;sensor_type;location;lat;lon;timestamp;pressure;altitude;pressure_sealevel;temperature;humidity
71791;BME280;59638;52.126;5.434;2023-04-15T00:00:56;101026.34;;;7.12;81.50
71791;BME280;59638;52.126;5.434;2023-04-15T00:03:23;101032.34;;;7.14;80.75
71791;BME280;59638;52.126;5.434;2023-04-15T00:05:50;101033.78;;;7.18;80.90
71791;BME280;59638;52.126;5.434;2023-04-15T00:08:17;101036.31;;;7.19;81.43
71791;BME280;59638;52.126;5.434;2023-04-15T00:10:43;101030.13;;;7.20;81.36
71791;BME280;59638;52.126;5.434;2023-04-15T00:13:11;101034.63;;;7.18;80.49
71791;BME280;59638;52.126;5.434;2023-04-15T00:15:37;101034.63;;;7.18;81.34
71791;BME280;59638;52.126;5.434;2023-04-15T00:18:04;101028.78;;;7.15;81.75
71791;BME280;59638;52.126;5.434;2023-04-15T00:20:30;101034.88;;;7.15;81.59
71791;BME280;59638;52.126;5.434;2023-04-15T00:22:57;101032.44;;;7.12;80.78
71791;BME280;59638;52.126;5.434;2023-04-15T00:25:25;101035.06;;;7.12;80.48
71791;BME280;59638;52.126;5.434;2023-04-15T00:27:52;101028.78;;;7.15;81.10
71791;BME280;59638;52.126;5.434;2023-04-15T00:30:18;101037.38;;;7.17;80.79
71791;BME280;59638;52.126;5.434;2023-04-15T00:32:45;101034.63;;;7.18;80.92
71791;BME280;59638;52.126;5.434;2023-04-15T00:35:12;101031.28;;;7.16;81.28
71791;BME280;59638;52.126;5.434;2023-04-15T00:37:39;101035.06;;;7.12;80.54
71791;BME280;59638;52.126;5.434;2023-04-15T00:40:06;101033.63;;;7.08;80.77
71791;BME280;59638;52.126;5.434;2023-04-15T00:42:35;101033.44;;;6.98;81.46
71791;BME280;59638;52.126;5.434;2023-04-15T00:45:02;101034.63;;;6.94;83.23
71791;BME280;59638;52.126;5.434;2023-04-15T00:47:29;101036.84;;;6.88;82.54
71791;BME280;59638;52.126;5.434;2023-04-15T00:49:56;101040.41;;;6.87;82.56
71791;BME280;59638;52.126;5.434;2023-04-15T00:52:23;101040.50;;;6.85;82.76
71791;BME280;59638;52.126;5.434;2023-04-15T00:54:49;101044.41;;;6.79;82.34
71791;BME280;59638;52.126;5.434;2023-04-15T00:57:17;101045.47;;;6.77;82.16
71791;BME280;59638;52.126;5.434;2023-04-15T00:59:44;101042.22;;;6.73;82.58
71791;BME280;59638;52.126;5.434;2023-04-15T01:02:10;101045.28;;;6.67;83.16
71791;BME280;59638;52.126;5.434;2023-04-15T01:04:37;101040.47;;;6.61;83.43
71791;BME280;59638;52.126;5.434;2023-04-15T01:07:03;101041.50;;;6.59;83.91
71791;BME280;59638;52.126;5.434;2023-04-15T01:09:31;101046.34;;;6.52;85.16
71791;BME280;59638;52.126;5.434;2023-04-15T01:11:58;101040.69;;;6.45;84.92
71791;BME280;59638;52.126;5.434;2023-04-15T01:14:25;101036.28;;;6.46;84.76
71791;BME280;59638;52.126;5.434;2023-04-15T01:16:51;101043.19;;;6.47;84.27
71791;BME280;59638;52.126;5.434;2023-04-15T01:19:18;101041.22;;;6.50;83.57
71791;BME280;59638;52.126;5.434;2023-04-15T01:21:45;101040.16;;;6.53;83.82
71791;BME280;59638;52.126;5.434;2023-04-15T01:24:12;101037.09;;;6.59;84.02
71791;BME280;59638;52.126;5.434;2023-04-15T01:26:41;101043.41;;;6.57;83.57
71791;BME280;59638;52.126;5.434;2023-04-15T01:29:09;101041.94;;;6.52;84.23
71791;BME280;59638;52.126;5.434;2023-04-15T01:31:36;101038.59;;;6.50;83.73
71791;BME280;59638;52.126;5.434;2023-04-15T01:34:03;101041.94;;;6.52;84.09
71791;BME280;59638;52.126;5.434;2023-04-15T01:36:29;101045.50;;;6.51;84.02
71791;BME280;59638;52.126;5.434;2023-04-15T01:38:57;101045.09;;;6.45;84.62
71791;BME280;59638;52.126;5.434;2023-04-15T01:41:27;101040.06;;;6.42;84.14
71791;BME280;59638;52.126;5.434;2023-04-15T01:43:53;101043.66;;;6.41;84.39
71791;BME280;59638;52.126;5.434;2023-04-15T01:46:20;101042.47;;;6.45;84.02
71791;BME280;59638;52.126;5.434;2023-04-15T01:48:46;101041.09;;;6.39;84.11
71791;BME280;59638;52.126;5.434;2023-04-15T01:51:13;101046.69;;;6.35;84.65
71791;BME280;59638;52.126;5.434;2023-04-15T01:53:39;101038.59;;;6.38;84.11
71791;BME280;59638;52.126;5.434;2023-04-15T01:56:06;101041.31;;;6.36;84.76
71791;BME280;59638;52.126;5.434;2023-04-15T01:58:33;101049.31;;;6.35;84.20
71791;BME280;59638;52.126;5.434;2023-04-15T02:00:59;101051.19;;;6.33;84.40
71791;BME280;59638;52.126;5.434;2023-04-15T02:03:27;101045.50;;;6.26;84.72
71791;BME280;59638;52.126;5.434;2023-04-15T02:05:55;101042.38;;;6.21;85.21
71791;BME280;59638;52.126;5.434;2023-04-15T02:08:21;101049.50;;;6.19;85.04
71791;BME280;59638;52.126;5.434;2023-04-15T02:10:48;101046.34;;;6.14;84.99
71791;BME280;59638;52.126;5.434;2023-04-15T02:13:14;101040.50;;;6.10;85.47
71791;BME280;59638;52.126;5.434;2023-04-15T02:15:49;101058.94;;;5.96;86.57
71791;BME280;59638;52.126;5.434;2023-04-15T02:18:15;101043.78;;;5.87;86.79
71791;BME280;59638;52.126;5.434;2023-04-15T02:20:42;101056.13;;;5.85;87.10
71791;BME280;59638;52.126;5.434;2023-04-15T02:23:09;101059.91;;;5.81;87.30
71791;BME280;59638;52.126;5.434;2023-04-15T02:25:36;101058.22;;;5.80;88.15
71791;BME280;59638;52.126;5.434;2023-04-15T02:28:04;101063.78;;;5.75;88.52
71791;BME280;59638;52.126;5.434;2023-04-15T02:30:32;101070.81;;;5.75;89.75
71791;BME280;59638;52.126;5.434;2023-04-15T02:32:59;101064.47;;;5.64;89.84
71791;BME280;59638;52.126;5.434;2023-04-15T02:35:26;101071.16;;;5.56;90.16
71791;BME280;59638;52.126;5.434;2023-04-15T02:37:53;101077.63;;;5.50;90.68
71791;BME280;59638;52.126;5.434;2023-04-15T02:40:19;101072.59;;;5.47;91.62
71791;BME280;59638;52.126;5.434;2023-04-15T02:42:45;101084.38;;;5.40;92.80
71791;BME280;59638;52.126;5.434;2023-04-15T02:45:12;101088.84;;;5.25;94.44
71791;BME280;59638;52.126;5.434;2023-04-15T02:47:38;101081.47;;;5.17;94.40
71791;BME280;59638;52.126;5.434;2023-04-15T02:50:09;101098.78;;;5.06;94.92
71791;BME280;59638;52.126;5.434;2023-04-15T02:52:41;101090.56;;;4.98;94.67
71791;BME280;59638;52.126;5.434;2023-04-15T02:55:08;101098.31;;;4.99;94.92
71791;BME280;59638;52.126;5.434;2023-04-15T02:57:35;101099.38;;;4.97;94.96
71791;BME280;59638;52.126;5.434;2023-04-15T03:00:06;101104.22;;;5.03;94.20
71791;BME280;59638;52.126;5.434;2023-04-15T03:02:35;101099.81;;;5.03;93.01
71791;BME280;59638;52.126;5.434;2023-04-15T03:05:03;101102.34;;;5.05;93.37
71791;BME280;59638;52.126;5.434;2023-04-15T03:07:29;101106.34;;;5.10;92.84
71791;BME280;59638;52.126;5.434;2023-04-15T03:09:56;101102.78;;;5.11;93.99
71791;BME280;59638;52.126;5.434;2023-04-15T03:12:23;101110.81;;;5.23;92.35
71791;BME280;59638;52.126;5.434;2023-04-15T03:14:49;101101.44;;;5.33;92.69
71791;BME280;59638;52.126;5.434;2023-04-15T03:17:16;101113.78;;;5.31;92.63
71791;BME280;59638;52.126;5.434;2023-04-15T03:19:43;101105.66;;;5.35;93.18
71791;BME280;59638;52.126;5.434;2023-04-15T03:22:09;101114.41;;;5.34;93.23
71791;BME280;59638;52.126;5.434;2023-04-15T03:24:36;101110.22;;;5.32;94.17
71791;BME280;59638;52.126;5.434;2023-04-15T03:27:02;101107.44;;;5.35;93.92
71791;BME280;59638;52.126;5.434;2023-04-15T03:29:28;101113.56;;;5.34;93.61
71791;BME280;59638;52.126;5.434;2023-04-15T03:31:55;101112.50;;;5.24;94.12
71791;BME280;59638;52.126;5.434;2023-04-15T03:34:21;101116.44;;;5.16;94.89
71791;BME280;59638;52.126;5.434;2023-04-15T03:36:48;101120.75;;;5.03;96.56
71791;BME280;59638;52.126;5.434;2023-04-15T03:39:14;101120.94;;;4.86;96.87
71791;BME280;59638;52.126;5.434;2023-04-15T03:41:41;101114.75;;;4.87;97.52
71791;BME280;59638;52.126;5.434;2023-04-15T03:44:08;101122.25;;;4.79;96.99
71791;BME280;59638;52.126;5.434;2023-04-15T03:46:34;101131.78;;;4.66;98.00
71791;BME280;59638;52.126;5.434;2023-04-15T03:49:01;101137.72;;;4.53;99.25
71791;BME280;59638;52.126;5.434;2023-04-15T03:51:28;101144.84;;;4.51;100.00
71791;BME280;59638;52.126;5.434;2023-04-15T03:53:54;101146.78;;;4.48;100.00
71791;BME280;59638;52.126;5.434;2023-04-15T03:56:21;101149.28;;;4.35;100.00
71791;BME280;59638;52.126;5.434;2023-04-15T03:58:47;101143.50;;;4.30;100.00
71791;BME280;59638;52.126;5.434;2023-04-15T04:01:13;101151.22;;;4.17;100.00
71791;BME280;59638;52.126;5.434;2023-04-15T04:03:40;101142.13;;;4.08;100.00
71791;BME280;59638;52.126;5.434;2023-04-15T04:06:07;101151.25;;;4.01;100.00
71791;BME280;59638;52.126;5.434;2023-04-15T04:08:33;101148.97;;;3.95;100.00
71791;BME280;59638;52.126;5.434;2023-04-15T04:11:00;101164.38;;;4.00;100.00
71791;BME280;59638;52.126;5.434;2023-04-15T04:13:26;101164.19;;;4.19;100.00
71791;BME280;59638;52.126;5.434;2023-04-15T04:15:52;101166.59;;;4.22;100.00
71791;BME280;59638;52.126;5.434;2023-04-15T04:18:19;101168.44;;;4.05;100.00
71791;BME280;59638;52.126;5.434;2023-04-15T04:20:45;101166.50;;;3.93;100.00
71791;BME280;59638;52.126;5.434;2023-04-15T04:23:12;101176.38;;;3.88;100.00
71791;BME280;59638;52.126;5.434;2023-04-15T04:25:38;101174.38;;;3.77;100.00
71791;BME280;59638;52.126;5.434;2023-04-15T04:28:05;101173.34;;;3.80;100.00
71791;BME280;59638;52.126;5.434;2023-04-15T04:30:31;101180.53;;;3.76;100.00
71791;BME280;59638;52.126;5.434;2023-04-15T04:32:57;101178.91;;;3.74;100.00
71791;BME280;59638;52.126;5.434;2023-04-15T04:35:24;101186.00;;;3.72;100.00
71791;BME280;59638;52.126;5.434;2023-04-15T04:37:50;101190.38;;;3.71;100.00
71791;BME280;59638;52.126;5.434;2023-04-15T04:40:17;101194.78;;;3.71;100.00
71791;BME280;59638;52.126;5.434;2023-04-15T04:42:44;101197.13;;;3.60;100.00
71791;BME280;59638;52.126;5.434;2023-04-15T04:45:10;101199.47;;;3.64;100.00
71791;BME280;59638;52.126;5.434;2023-04-15T04:47:37;101208.31;;;3.62;100.00
71791;BME280;59638;52.126;5.434;2023-04-15T04:50:03;101212.59;;;3.63;100.00
71791;BME280;59638;52.126;5.434;2023-04-15T04:52:30;101220.19;;;3.67;100.00
71791;BME280;59638;52.126;5.434;2023-04-15T04:54:56;101228.25;;;3.63;100.00
71791;BME280;59638;52.126;5.434;2023-04-15T04:57:23;101229.78;;;3.67;100.00
71791;BME280;59638;52.126;5.434;2023-04-15T04:59:49;101224.56;;;3.67;100.00
71791;BME280;59638;52.126;5.434;2023-04-15T05:02:16;101226.59;;;3.62;100.00
71791;BME280;59638;52.126;5.434;2023-04-15T05:04:42;101231.22;;;3.72;100.00
71791;BME280;59638;52.126;5.434;2023-04-15T05:07:09;101242.78;;;3.84;100.00
71791;BME280;59638;52.126;5.434;2023-04-15T05:09:35;101242.25;;;3.93;100.00
71791;BME280;59638;52.126;5.434;2023-04-15T05:12:05;101246.44;;;3.96;100.00
71791;BME280;59638;52.126;5.434;2023-04-15T05:14:32;101258.59;;;3.97;100.00
71791;BME280;59638;52.126;5.434;2023-04-15T05:16:59;101261.13;;;3.98;100.00
71791;BME280;59638;52.126;5.434;2023-04-15T05:19:25;101261.38;;;4.09;100.00
71791;BME280;59638;52.126;5.434;2023-04-15T05:21:51;101253.66;;;4.22;100.00
71791;BME280;59638;52.126;5.434;2023-04-15T05:24:18;101255.69;;;4.33;100.00
71791;BME280;59638;52.126;5.434;2023-04-15T05:26:44;101267.31;;;4.43;100.00
71791;BME280;59638;52.126;5.434;2023-04-15T05:29:11;101264.72;;;4.57;100.00
71791;BME280;59638;52.126;5.434;2023-04-15T05:31:37;101277.94;;;4.70;100.00
71791;BME280;59638;52.126;5.434;2023-04-15T05:34:04;101277.28;;;4.81;100.00
71791;BME280;59638;52.126;5.434;2023-04-15T05:36:30;101285.16;;;4.95;100.00
71791;BME280;59638;52.126;5.434;2023-04-15T05:38:57;101289.19;;;5.01;100.00
71791;BME280;59638;52.126;5.434;2023-04-15T05:41:23;101287.84;;;5.09;100.00
71791;BME280;59638;52.126;5.434;2023-04-15T05:43:50;101289.16;;;5.16;99.98
71791;BME280;59638;52.126;5.434;2023-04-15T05:46:16;101299.06;;;5.26;98.81
71791;BME280;59638;52.126;5.434;2023-04-15T05:48:43;101300.38;;;5.33;99.11
71791;BME280;59638;52.126;5.434;2023-04-15T05:51:09;101302.97;;;5.33;98.91
71791;BME280;59638;52.126;5.434;2023-04-15T05:53:36;101311.50;;;5.36;98.94
71791;BME280;59638;52.126;5.434;2023-04-15T05:56:02;101309.63;;;5.38;98.92
71791;BME280;59638;52.126;5.434;2023-04-15T05:58:29;101310.47;;;5.39;99.45
71791;BME280;59638;52.126;5.434;2023-04-15T06:00:55;101316.38;;;5.42;99.34
71791;BME280;59638;52.126;5.434;2023-04-15T06:03:22;101316.38;;;5.42;100.00
71791;BME280;59638;52.126;5.434;2023-04-15T06:05:49;101320.66;;;5.43;100.00
71791;BME280;59638;52.126;5.434;2023-04-15T06:08:15;101322.44;;;5.43;100.00
71791;BME280;59638;52.126;5.434;2023-04-15T06:10:42;101332.56;;;5.49;100.00
71791;BME280;59638;52.126;5.434;2023-04-15T06:13:08;101342.47;;;5.58;100.00
71791;BME280;59638;52.126;5.434;2023-04-15T06:15:35;101336.25;;;5.73;100.00
71791;BME280;59638;52.126;5.434;2023-04-15T06:18:01;101337.13;;;5.88;100.00
71791;BME280;59638;52.126;5.434;2023-04-15T06:20:28;101337.97;;;6.03;100.00
71791;BME280;59638;52.126;5.434;2023-04-15T06:22:54;101343.59;;;6.38;100.00
71791;BME280;59638;52.126;5.434;2023-04-15T06:25:21;101338.06;;;6.82;100.00
71791;BME280;59638;52.126;5.434;2023-04-15T06:27:48;101344.84;;;7.12;98.69
71791;BME280;59638;52.126;5.434;2023-04-15T06:30:14;101350.34;;;7.34;97.69
71791;BME280;59638;52.126;5.434;2023-04-15T06:32:41;101355.34;;;7.76;97.44
71791;BME280;59638;52.126;5.434;2023-04-15T06:35:08;101355.28;;;8.14;95.47
71791;BME280;59638;52.126;5.434;2023-04-15T06:37:34;101354.91;;;8.31;94.82
71791;BME280;59638;52.126;5.434;2023-04-15T06:40:01;101350.53;;;8.56;94.79
71791;BME280;59638;52.126;5.434;2023-04-15T06:42:30;101362.63;;;8.82;93.03
71791;BME280;59638;52.126;5.434;2023-04-15T06:44:56;101365.06;;;8.96;92.39
71791;BME280;59638;52.126;5.434;2023-04-15T06:47:23;101366.56;;;9.12;92.48
71791;BME280;59638;52.126;5.434;2023-04-15T06:49:49;101375.00;;;9.39;92.15
71791;BME280;59638;52.126;5.434;2023-04-15T06:52:16;101383.91;;;9.83;91.17
71791;BME280;59638;52.126;5.434;2023-04-15T06:54:42;101386.31;;;10.31;88.66
71791;BME280;59638;52.126;5.434;2023-04-15T06:57:09;101386.84;;;10.89;86.78
71791;BME280;59638;52.126;5.434;2023-04-15T06:59:35;101389.06;;;11.67;84.94
71791;BME280;59638;52.126;5.434;2023-04-15T07:02:01;101388.25;;;12.38;82.90
71791;BME280;59638;52.126;5.434;2023-04-15T07:04:28;101392.47;;;12.79;81.46
71791;BME280;59638;52.126;5.434;2023-04-15T07:06:54;101393.03;;;13.12;79.08
71791;BME280;59638;52.126;5.434;2023-04-15T07:09:22;101396.09;;;13.07;79.65
71791;BME280;59638;52.126;5.434;2023-04-15T07:11:49;101405.31;;;12.84;78.69
71791;BME280;59638;52.126;5.434;2023-04-15T07:14:16;101409.66;;;12.25;81.20
71791;BME280;59638;52.126;5.434;2023-04-15T07:16:43;101411.00;;;11.58;82.77
71791;BME280;59638;52.126;5.434;2023-04-15T07:19:09;101416.16;;;11.18;84.51
71791;BME280;59638;52.126;5.434;2023-04-15T07:21:36;101422.72;;;11.03;84.75
71791;BME280;59638;52.126;5.434;2023-04-15T07:24:04;101432.00;;;10.97;84.41
71791;BME280;59638;52.126;5.434;2023-04-15T07:26:31;101436.00;;;11.12;84.09
71791;BME280;59638;52.126;5.434;2023-04-15T07:28:58;101426.75;;;11.39;82.44
71791;BME280;59638;52.126;5.434;2023-04-15T07:31:24;101437.63;;;11.87;82.46
71791;BME280;59638;52.126;5.434;2023-04-15T07:33:51;101431.38;;;12.78;77.81
71791;BME280;59638;52.126;5.434;2023-04-15T07:36:18;101431.00;;;13.31;76.05
71791;BME280;59638;52.126;5.434;2023-04-15T07:38:44;101436.34;;;13.78;75.19
71791;BME280;59638;52.126;5.434;2023-04-15T07:41:11;101438.50;;;14.39;72.47
71791;BME280;59638;52.126;5.434;2023-04-15T07:43:37;101446.53;;;14.57;70.42
71791;BME280;59638;52.126;5.434;2023-04-15T07:46:04;101424.78;;;14.89;69.26
71791;BME280;59638;52.126;5.434;2023-04-15T07:48:31;101454.91;;;14.62;67.38
71791;BME280;59638;52.126;5.434;2023-04-15T07:50:57;101452.06;;;14.09;66.77
71791;BME280;59638;52.126;5.434;2023-04-15T07:53:24;101455.81;;;14.53;67.80
71791;BME280;59638;52.126;5.434;2023-04-15T07:55:51;101454.22;;;14.78;65.49
71791;BME280;59638;52.126;5.434;2023-04-15T07:58:17;101466.91;;;14.66;63.80
71791;BME280;59638;52.126;5.434;2023-04-15T08:00:44;101451.00;;;14.57;64.20
71791;BME280;59638;52.126;5.434;2023-04-15T08:03:10;101464.09;;;14.03;64.44
71791;BME280;59638;52.126;5.434;2023-04-15T08:05:37;101462.22;;;13.76;65.51
71791;BME280;59638;52.126;5.434;2023-04-15T08:08:03;101464.41;;;13.91;66.34
71791;BME280;59638;52.126;5.434;2023-04-15T08:10:30;101470.00;;;14.25;64.85
71791;BME280;59638;52.126;5.434;2023-04-15T08:12:56;101473.91;;;14.67;62.74
71791;BME280;59638;52.126;5.434;2023-04-15T08:15:23;101467.50;;;14.78;63.40
71791;BME280;59638;52.126;5.434;2023-04-15T08:17:50;101474.59;;;14.87;61.57
71791;BME280;59638;52.126;5.434;2023-04-15T08:20:17;101473.56;;;15.16;62.29
71791;BME280;59638;52.126;5.434;2023-04-15T08:22:44;101487.91;;;14.87;62.18
71791;BME280;59638;52.126;5.434;2023-04-15T08:25:12;101472.16;;;15.47;61.96
71791;BME280;59638;52.126;5.434;2023-04-15T08:27:39;101467.50;;;16.19;59.88
71791;BME280;59638;52.126;5.434;2023-04-15T08:30:06;101471.19;;;15.92;58.13
71791;BME280;59638;52.126;5.434;2023-04-15T08:32:33;101484.00;;;15.71;57.22
71791;BME280;59638;52.126;5.434;2023-04-15T08:34:59;101472.00;;;15.31;60.68
71791;BME280;59638;52.126;5.434;2023-04-15T08:37:26;101485.84;;;15.53;59.70
71791;BME280;59638;52.126;5.434;2023-04-15T08:39:53;101491.38;;;15.59;58.64
71791;BME280;59638;52.126;5.434;2023-04-15T08:42:25;101499.38;;;15.41;58.42
71791;BME280;59638;52.126;5.434;2023-04-15T08:44:53;101503.94;;;14.40;59.79
71791;BME280;59638;52.126;5.434;2023-04-15T08:47:22;101513.00;;;14.01;62.36
71791;BME280;59638;52.126;5.434;2023-04-15T08:49:54;101517.19;;;14.40;62.19
71791;BME280;59638;52.126;5.434;2023-04-15T08:52:20;101518.84;;;14.79;61.50
71791;BME280;59638;52.126;5.434;2023-04-15T08:54:47;101535.94;;;14.76;61.34
71791;BME280;59638;52.126;5.434;2023-04-15T08:57:14;101533.81;;;15.07;60.34
71791;BME280;59638;52.126;5.434;2023-04-15T08:59:41;101537.97;;;15.10;60.35
71791;BME280;59638;52.126;5.434;2023-04-15T09:02:08;101537.09;;;15.19;58.23
71791;BME280;59638;52.126;5.434;2023-04-15T09:04:35;101544.06;;;15.20;59.22
71791;BME280;59638;52.126;5.434;2023-04-15T09:07:01;101537.88;;;15.65;58.83
71791;BME280;59638;52.126;5.434;2023-04-15T09:09:28;101539.53;;;15.66;57.77
71791;BME280;59638;52.126;5.434;2023-04-15T09:11:54;101539.84;;;15.63;56.35
71791;BME280;59638;52.126;5.434;2023-04-15T09:14:21;101546.50;;;16.37;55.43
71791;BME280;59638;52.126;5.434;2023-04-15T09:16:58;101558.78;;;16.03;57.34
71791;BME280;59638;52.126;5.434;2023-04-15T09:19:25;101554.25;;;16.22;58.33
71791;BME280;59638;52.126;5.434;2023-04-15T09:21:53;101559.13;;;16.95;56.40
71791;BME280;59638;52.126;5.434;2023-04-15T09:24:25;101564.94;;;16.56;56.16
71791;BME280;59638;52.126;5.434;2023-04-15T09:26:59;101568.72;;;16.19;56.75
71791;BME280;59638;52.126;5.434;2023-04-15T09:29:26;101571.47;;;15.66;57.96
71791;BME280;59638;52.126;5.434;2023-04-15T09:31:52;101574.66;;;15.87;57.60
71791;BME280;59638;52.126;5.434;2023-04-15T09:34:19;101567.28;;;16.25;56.88
71791;BME280;59638;52.126;5.434;2023-04-15T09:39:16;101573.72;;;15.96;58.93
71791;BME280;59638;52.126;5.434;2023-04-15T09:41:43;101581.06;;;15.13;59.24
71791;BME280;59638;52.126;5.434;2023-04-15T09:44:25;101589.84;;;14.59;61.53
71791;BME280;59638;52.126;5.434;2023-04-15T09:46:52;101586.59;;;14.65;61.62
71791;BME280;59638;52.126;5.434;2023-04-15T09:49:18;101586.34;;;14.68;62.59
71791;BME280;59638;52.126;5.434;2023-04-15T09:51:46;101582.94;;;14.76;59.90
71791;BME280;59638;52.126;5.434;2023-04-15T09:54:35;101589.28;;;14.65;62.94
71791;BME280;59638;52.126;5.434;2023-04-15T09:57:08;101591.59;;;14.78;62.47
71791;BME280;59638;52.126;5.434;2023-04-15T09:59:35;101587.63;;;14.45;60.54
71791;BME280;59638;52.126;5.434;2023-04-15T10:02:03;101594.84;;;14.15;61.65
71791;BME280;59638;52.126;5.434;2023-04-15T10:04:34;101599.34;;;13.85;61.45
71791;BME280;59638;52.126;5.434;2023-04-15T10:07:03;101595.91;;;14.88;60.92
71791;BME280;59638;52.126;5.434;2023-04-15T10:09:30;101594.09;;;15.34;59.43
71791;BME280;59638;52.126;5.434;2023-04-15T10:11:58;101597.97;;;16.11;58.44
71791;BME280;59638;52.126;5.434;2023-04-15T10:14:27;101605.28;;;16.35;57.56
71791;BME280;59638;52.126;5.434;2023-04-15T10:17:02;101602.38;;;16.02;56.24
71791;BME280;59638;52.126;5.434;2023-04-15T10:19:30;101608.63;;;16.37;57.07
71791;BME280;59638;52.126;5.434;2023-04-15T10:21:58;101611.91;;;16.83;56.09
71791;BME280;59638;52.126;5.434;2023-04-15T10:24:26;101613.41;;;16.51;55.79
71791;BME280;59638;52.126;5.434;2023-04-15T10:26:53;101609.53;;;16.20;53.98
71791;BME280;59638;52.126;5.434;2023-04-15T10:29:20;101608.09;;;16.08;56.88
71791;BME280;59638;52.126;5.434;2023-04-15T10:31:47;101605.66;;;17.00;55.50
71791;BME280;59638;52.126;5.434;2023-04-15T10:34:14;101604.59;;;16.85;54.26
71791;BME280;59638;52.126;5.434;2023-04-15T10:36:41;101607.97;;;16.95;55.40
71791;BME280;59638;52.126;5.434;2023-04-15T10:42:15;101625.78;;;14.73;60.13
71791;BME280;59638;52.126;5.434;2023-04-15T10:44:44;101622.97;;;15.29;59.71
71791;BME280;59638;52.126;5.434;2023-04-15T10:47:15;101624.22;;;15.53;60.94
71791;BME280;59638;52.126;5.434;2023-04-15T10:49:48;101630.63;;;15.05;60.68
71791;BME280;59638;52.126;5.434;2023-04-15T10:52:21;101635.91;;;14.30;62.10
71791;BME280;59638;52.126;5.434;2023-04-15T10:54:47;101646.53;;;13.72;63.15
71791;BME280;59638;52.126;5.434;2023-04-15T10:57:21;101640.53;;;14.09;63.19
71791;BME280;59638;52.126;5.434;2023-04-15T11:02:44;101642.28;;;14.66;61.86
71791;BME280;59638;52.126;5.434;2023-04-15T11:05:12;101643.94;;;15.77;58.84
71791;BME280;59638;52.126;5.434;2023-04-15T11:12:39;101654.91;;;14.55;61.04
71791;BME280;59638;52.126;5.434;2023-04-15T11:18:18;101656.38;;;14.77;61.64
71791;BME280;59638;52.126;5.434;2023-04-15T11:20:48;101657.38;;;15.03;60.76
71791;BME280;59638;52.126;5.434;2023-04-15T11:23:26;101649.38;;;15.40;59.81
71791;BME280;59638;52.126;5.434;2023-04-15T11:25:54;101659.19;;;15.58;60.65
71791;BME280;59638;52.126;5.434;2023-04-15T11:28:24;101646.56;;;17.17;57.08
71791;BME280;59638;52.126;5.434;2023-04-15T11:30:51;101648.66;;;16.97;54.48
71791;BME280;59638;52.126;5.434;2023-04-15T11:33:17;101652.53;;;16.51;58.63
71791;BME280;59638;52.126;5.434;2023-04-15T11:35:44;101661.88;;;15.30;58.97
71791;BME280;59638;52.126;5.434;2023-04-15T11:38:11;101657.69;;;15.28;61.19
71791;BME280;59638;52.126;5.434;2023-04-15T11:40:39;101663.78;;;15.38;59.97
71791;BME280;59638;52.126;5.434;2023-04-15T11:43:15;101652.84;;;16.48;56.40
71791;BME280;59638;52.126;5.434;2023-04-15T11:45:52;101662.69;;;15.03;59.50
71791;BME280;59638;52.126;5.434;2023-04-15T11:48:20;101654.75;;;16.64;58.17
71791;BME280;59638;52.126;5.434;2023-04-15T11:50:55;101662.75;;;16.64;57.43
71791;BME280;59638;52.126;5.434;2023-04-15T11:53:23;101659.47;;;16.44;55.32
71791;BME280;59638;52.126;5.434;2023-04-15T11:55:51;101671.31;;;16.93;56.77
71791;BME280;59638;52.126;5.434;2023-04-15T11:58:23;101675.75;;;15.24;57.82
71791;BME280;59638;52.126;5.434;2023-04-15T12:00:52;101688.56;;;15.11;59.58
71791;BME280;59638;52.126;5.434;2023-04-15T12:03:30;101685.41;;;16.16;57.07
71791;BME280;59638;52.126;5.434;2023-04-15T12:06:17;101686.75;;;15.39;59.63
71791;BME280;59638;52.126;5.434;2023-04-15T12:08:51;101690.91;;;14.77;60.76
71791;BME280;59638;52.126;5.434;2023-04-15T12:11:19;101694.19;;;15.08;59.64
71791;BME280;59638;52.126;5.434;2023-04-15T12:13:48;101698.78;;;15.88;60.53
71791;BME280;59638;52.126;5.434;2023-04-15T12:16:16;101703.19;;;16.33;55.34
71791;BME280;59638;52.126;5.434;2023-04-15T12:18:49;101705.09;;;16.41;54.71
71791;BME280;59638;52.126;5.434;2023-04-15T12:21:18;101702.72;;;15.39;59.37
71791;BME280;59638;52.126;5.434;2023-04-15T12:23:52;101706.22;;;15.67;58.45
71791;BME280;59638;52.126;5.434;2023-04-15T12:26:26;101704.88;;;15.53;60.38
71791;BME280;59638;52.126;5.434;2023-04-15T12:29:05;101708.66;;;15.23;60.25
71791;BME280;59638;52.126;5.434;2023-04-15T12:31:35;101725.84;;;14.91;60.65
71791;BME280;59638;52.126;5.434;2023-04-15T12:34:05;101729.06;;;14.85;59.69
71791;BME280;59638;52.126;5.434;2023-04-15T12:36:32;101735.00;;;14.02;61.26
71791;BME280;59638;52.126;5.434;2023-04-15T12:39:03;101731.28;;;13.64;63.87
71791;BME280;59638;52.126;5.434;2023-04-15T12:41:30;101728.81;;;13.92;64.30
71791;BME280;59638;52.126;5.434;2023-04-15T12:43:57;101733.19;;;14.02;64.05
71791;BME280;59638;52.126;5.434;2023-04-15T12:46:25;101730.38;;;14.72;62.45
71791;BME280;59638;52.126;5.434;2023-04-15T12:48:52;101736.47;;;14.91;61.13
71791;BME280;59638;52.126;5.434;2023-04-15T12:51:19;101742.66;;;14.82;61.46
71791;BME280;59638;52.126;5.434;2023-04-15T12:53:48;101737.06;;;14.85;63.25
71791;BME280;59638;52.126;5.434;2023-04-15T12:56:15;101754.69;;;14.19;63.01
71791;BME280;59638;52.126;5.434;2023-04-15T12:58:42;101751.63;;;14.04;63.87
71791;BME280;59638;52.126;5.434;2023-04-15T13:01:09;101755.56;;;13.59;64.42
71791;BME280;59638;52.126;5.434;2023-04-15T13:03:35;101759.94;;;13.30;66.13
71791;BME280;59638;52.126;5.434;2023-04-15T13:06:02;101758.44;;;13.47;64.60
71791;BME280;59638;52.126;5.434;2023-04-15T13:08:30;101764.03;;;13.44;64.02
71791;BME280;59638;52.126;5.434;2023-04-15T13:10:57;101772.06;;;13.32;64.91